Time;durP1;ratioP1;P1;durP2;ratioP2;P2;SDS_P1;SDS_P2;PMS_P1;PMS_P2;Temp;Humidity;BMP_temperature;BMP_pressure;BME280_temperature;BME280_humidity;BME280_pressure;Samples;Min_cycle;Max_cycle;Signal;HPM_P1;HPM_P2
2023/05/25 00:01:54;;;;;;;11.23;4.13;;;11.00;99.90;;;;;;10497173;28;20210;-72
2023/05/25 00:06:55;;;;;;;8.80;3.70;;;10.90;99.90;;;;;;10493780;28;20786;-72
2023/05/25 00:11:57;;;;;;;12.50;4.03;;;10.80;99.90;;;;;;10506074;28;20215;-74
2023/05/25 00:16:58;;;;;;;13.50;4.10;;;10.80;99.90;;;;;;10507251;28;20217;-72
2023/05/25 00:22:01;;;;;;;9.80;3.40;;;10.60;99.90;;;;;;10515827;28;20253;-73
2023/05/25 00:27:02;;;;;;;10.57;3.47;;;10.60;99.90;;;;;;10514090;28;20230;-73
2023/05/25 00:32:02;;;;;;;7.53;3.30;;;10.50;99.90;;;;;;10507713;28;20215;-73
2023/05/25 00:37:06;;;;;;;10.07;3.73;;;10.50;99.90;;;;;;10515201;28;20272;-72
2023/05/25 00:42:06;;;;;;;6.77;3.50;;;10.50;99.90;;;;;;10496422;28;20306;-72
2023/05/25 00:47:07;;;;;;;5.73;3.30;;;10.30;99.90;;;;;;10512734;28;20219;-74
2023/05/25 00:52:11;;;;;;;16.03;4.10;;;10.30;99.90;;;;;;10508041;28;20216;-75
2023/05/25 00:57:16;;;;;;;7.30;3.30;;;10.30;99.90;;;;;;10514992;28;20253;-74
2023/05/25 01:02:18;;;;;;;6.40;3.73;;;10.20;99.90;;;;;;10494453;28;20564;-72
2023/05/25 01:07:24;;;;;;;10.17;3.67;;;10.20;99.90;;;;;;10516190;28;20230;-71
2023/05/25 01:12:37;;;;;;;6.13;3.67;;;10.10;99.90;;;;;;10521978;28;20774;-71
2023/05/25 01:17:38;;;;;;;6.13;3.70;;;10.10;99.90;;;;;;10523976;28;20597;-70
2023/05/25 01:22:56;;;;;;;8.70;3.43;;;10.10;99.90;;;;;;10518399;28;20218;-69
2023/05/25 01:28:04;;;;;;;10.53;3.53;;;10.00;99.90;;;;;;10520823;28;20635;-73
2023/05/25 01:33:06;;;;;;;6.67;4.03;;;10.00;99.90;;;;;;10508359;28;20286;-72
2023/05/25 01:38:08;;;;;;;9.20;3.43;;;9.90;99.90;;;;;;10500894;28;20625;-70
2023/05/25 01:43:09;;;;;;;8.23;3.90;;;10.00;99.90;;;;;;10494087;28;20223;-70
2023/05/25 01:48:32;;;;;;;8.03;3.83;;;9.90;99.90;;;;;;10501939;28;20294;-70
2023/05/25 01:53:47;;;;;;;8.23;4.37;;;9.80;99.90;;;;;;10516398;28;20716;-71
2023/05/25 01:58:50;;;;;;;7.67;3.87;;;9.80;99.90;;;;;;10511684;28;20587;-71
2023/05/25 02:03:52;;;;;;;8.23;3.97;;;9.80;99.90;;;;;;10525461;28;20271;-70
2023/05/25 02:08:52;;;;;;;9.37;4.37;;;9.80;99.90;;;;;;10510440;28;20284;-70
2023/05/25 02:13:53;;;;;;;8.77;4.30;;;9.70;99.90;;;;;;10517771;28;20673;-70
2023/05/25 02:18:53;;;;;;;9.30;4.33;;;9.60;99.90;;;;;;10518225;28;20291;-70
2023/05/25 02:23:56;;;;;;;7.53;4.20;;;9.60;99.90;;;;;;10511218;28;20233;-70
2023/05/25 02:28:57;;;;;;;8.83;4.20;;;9.60;99.90;;;;;;10517761;28;20226;-70
2023/05/25 02:33:58;;;;;;;9.67;4.43;;;9.60;99.90;;;;;;10510198;28;20219;-71
2023/05/25 02:38:58;;;;;;;6.97;3.83;;;9.50;99.90;;;;;;10499627;28;20238;-71
2023/05/25 02:43:59;;;;;;;8.80;4.57;;;9.50;99.90;;;;;;10509044;28;20223;-71
2023/05/25 02:49:00;;;;;;;9.73;4.50;;;9.50;99.90;;;;;;10491048;28;20226;-70
2023/05/25 02:54:00;;;;;;;10.87;4.40;;;9.50;99.90;;;;;;10517632;28;20271;-70
2023/05/25 02:59:01;;;;;;;7.93;4.43;;;9.40;99.90;;;;;;10509267;28;20223;-70
2023/05/25 03:04:01;;;;;;;8.97;4.93;;;9.40;99.90;;;;;;10515481;28;20217;-70
2023/05/25 03:09:03;;;;;;;9.17;4.80;;;9.40;99.90;;;;;;10508234;28;20243;-70
2023/05/25 03:14:08;;;;;;;8.63;4.80;;;9.30;99.90;;;;;;10497229;28;20238;-71
2023/05/25 03:19:09;;;;;;;8.57;4.50;;;9.30;99.90;;;;;;10519531;28;20731;-70
2023/05/25 03:24:10;;;;;;;11.80;4.90;;;9.20;99.90;;;;;;10523575;28;20297;-72
2023/05/25 03:29:10;;;;;;;9.43;4.90;;;9.20;99.90;;;;;;10508577;28;20301;-73
2023/05/25 03:34:11;;;;;;;13.80;4.93;;;9.20;99.90;;;;;;10504657;28;20250;-70
2023/05/25 03:39:12;;;;;;;9.37;5.17;;;9.20;99.90;;;;;;10511265;28;20218;-69
2023/05/25 03:44:13;;;;;;;13.00;5.57;;;9.20;99.90;;;;;;10514483;28;20219;-72
2023/05/25 03:49:13;;;;;;;8.73;5.43;;;9.20;99.90;;;;;;10496277;28;20719;-72
2023/05/25 03:54:14;;;;;;;10.77;5.97;;;9.10;99.90;;;;;;10523206;28;20211;-73
2023/05/25 03:59:15;;;;;;;10.20;5.43;;;9.20;99.90;;;;;;10510641;28;20223;-73
2023/05/25 04:04:15;;;;;;;10.60;5.13;;;9.30;99.90;;;;;;10499760;28;20215;-73
2023/05/25 04:09:16;;;;;;;11.40;5.50;;;9.30;99.90;;;;;;10511458;28;20250;-70
2023/05/25 04:14:19;;;;;;;11.13;5.63;;;9.50;99.90;;;;;;10515293;28;20905;-70
2023/05/25 04:19:20;;;;;;;11.30;5.50;;;9.50;99.90;;;;;;10509705;28;20257;-71
2023/05/25 04:24:21;;;;;;;12.10;5.53;;;9.50;99.90;;;;;;10512032;28;20208;-70
2023/05/25 04:29:21;;;;;;;11.13;5.70;;;9.60;99.90;;;;;;10507153;28;20253;-74
2023/05/25 04:34:22;;;;;;;10.67;5.70;;;9.60;99.90;;;;;;10505736;28;20245;-74
2023/05/25 04:39:23;;;;;;;16.43;5.17;;;9.60;99.90;;;;;;10526288;28;20291;-73
2023/05/25 04:44:24;;;;;;;14.37;5.10;;;10.10;99.90;;;;;;10505339;28;20339;-74
2023/05/25 04:49:25;;;;;;;9.57;5.20;;;10.50;99.90;;;;;;10499670;28;20732;-75
2023/05/25 04:54:26;;;;;;;8.27;4.40;;;10.70;99.90;;;;;;10500028;28;20288;-74
2023/05/25 04:59:26;;;;;;;8.60;4.47;;;11.70;99.90;;;;;;10508168;28;20736;-75
2023/05/25 05:04:27;;;;;;;9.20;4.40;;;13.80;99.90;;;;;;10521111;28;20706;-74
2023/05/25 05:09:28;;;;;;;10.20;4.07;;;14.10;99.90;;;;;;10518073;28;20296;-75
2023/05/25 05:14:28;;;;;;;8.80;4.40;;;14.10;99.90;;;;;;10499598;28;20219;-74
2023/05/25 05:19:30;;;;;;;7.63;4.20;;;13.30;99.90;;;;;;10521111;28;20663;-74
2023/05/25 05:24:30;;;;;;;7.67;4.13;;;12.70;99.90;;;;;;10504810;28;20222;-73
2023/05/25 05:29:33;;;;;;;8.30;4.40;;;12.70;99.90;;;;;;10509911;28;20743;-75
2023/05/25 05:34:33;;;;;;;10.50;4.00;;;14.40;99.90;;;;;;10508560;28;20875;-74
2023/05/25 05:39:34;;;;;;;13.07;3.80;;;17.10;99.90;;;;;;10500989;28;20282;-75
2023/05/25 05:44:35;;;;;;;6.93;2.97;;;18.20;99.90;;;;;;10526326;28;20313;-74
2023/05/25 05:49:38;;;;;;;7.43;3.87;;;18.90;99.90;;;;;;10494834;28;20222;-74
2023/05/25 05:54:38;;;;;;;8.17;3.93;;;20.50;97.80;;;;;;10499892;28;20222;-75
2023/05/25 05:59:39;;;;;;;6.47;3.47;;;21.70;93.20;;;;;;10519956;28;20203;-76
2023/05/25 06:04:39;;;;;;;8.90;4.33;;;21.00;92.40;;;;;;10520208;28;20427;-74
2023/05/25 06:09:40;;;;;;;8.33;3.77;;;21.80;89.90;;;;;;10513718;28;20219;-75
2023/05/25 06:14:41;;;;;;;9.10;3.73;;;22.10;85.80;;;;;;10494026;28;20225;-74
2023/05/25 06:19:42;;;;;;;7.13;3.80;;;21.60;84.00;;;;;;10511271;28;20304;-75
2023/05/25 06:24:42;;;;;;;10.17;3.80;;;20.90;85.60;;;;;;10495694;28;20316;-74
2023/05/25 06:29:43;;;;;;;8.97;3.53;;;21.20;82.80;;;;;;10518296;28;20753;-74
2023/05/25 06:34:44;;;;;;;8.93;3.60;;;21.40;81.60;;;;;;10501573;28;20260;-77
2023/05/25 06:39:44;;;;;;;7.77;3.27;;;22.40;79.30;;;;;;10501531;28;20229;-75
2023/05/25 06:44:45;;;;;;;9.77;3.30;;;22.40;75.90;;;;;;10499507;28;20313;-74
2023/05/25 06:49:46;;;;;;;6.53;3.40;;;22.90;73.70;;;;;;10512111;28;20222;-74
2023/05/25 06:54:46;;;;;;;6.83;2.83;;;23.70;70.80;;;;;;10509500;28;20222;-74
2023/05/25 06:59:47;;;;;;;10.17;3.73;;;24.90;66.70;;;;;;10491105;28;20218;-74
2023/05/25 07:04:51;;;;;;;7.73;3.33;;;24.30;63.00;;;;;;10498930;28;20697;-75
2023/05/25 07:09:51;;;;;;;8.33;3.00;;;24.10;61.20;;;;;;10509476;28;20793;-75
2023/05/25 07:14:52;;;;;;;5.67;2.90;;;24.30;63.40;;;;;;10493995;28;20303;-75
2023/05/25 07:19:53;;;;;;;8.47;3.63;;;25.00;62.40;;;;;;10498814;28;20219;-73
2023/05/25 07:25:00;;;;;;;8.47;3.70;;;26.10;58.90;;;;;;10644522;27;20593;-74
2023/05/25 07:30:00;;;;;;;7.60;3.93;;;26.90;56.10;;;;;;10622366;27;20223;-75
2023/05/25 07:35:01;;;;;;;7.90;3.73;;;25.50;56.10;;;;;;10632563;27;20209;-75
2023/05/25 07:40:02;;;;;;;9.57;3.90;;;25.30;57.10;;;;;;10615552;27;20300;-75
2023/05/25 07:45:03;;;;;;;10.20;4.03;;;25.20;57.70;;;;;;10629235;27;20213;-74
2023/05/25 07:50:07;;;;;;;9.87;3.50;;;25.30;57.30;;;;;;10615670;27;20224;-74
2023/05/25 07:55:09;;;;;;;7.53;3.67;;;26.50;55.90;;;;;;10625541;27;20197;-75
2023/05/25 08:00:10;;;;;;;10.23;3.93;;;27.70;53.10;;;;;;10628186;27;20184;-75
2023/05/25 08:05:11;;;;;;;8.50;3.83;;;26.10;54.10;;;;;;10609133;27;20182;-75
2023/05/25 08:10:12;;;;;;;8.17;3.73;;;25.50;55.60;;;;;;10633807;27;20181;-74
2023/05/25 08:15:12;;;;;;;10.10;3.80;;;27.20;52.60;;;;;;10608549;27;20181;-75
2023/05/25 08:20:13;;;;;;;8.50;3.87;;;25.90;53.70;;;;;;10637309;27;20184;-74
2023/05/25 08:25:14;;;;;;;8.20;3.90;;;26.20;53.20;;;;;;10608087;27;20185;-75
2023/05/25 08:30:14;;;;;;;7.03;3.40;;;26.60;52.50;;;;;;10614923;27;20552;-74
2023/05/25 08:35:16;;;;;;;8.80;4.43;;;28.10;51.40;;;;;;10589255;27;20721;-76
2023/05/25 08:40:17;;;;;;;11.80;4.10;;;29.00;49.20;;;;;;10610923;27;20586;-75
2023/05/25 08:45:18;;;;;;;7.90;3.73;;;27.80;47.80;;;;;;10609488;27;20209;-75
2023/05/25 08:50:19;;;;;;;7.17;3.63;;;28.20;48.50;;;;;;10590550;27;20213;-76
2023/05/25 08:55:24;;;;;;;8.30;3.90;;;27.70;48.40;;;;;;10584558;27;20192;-75
2023/05/25 09:00:31;;;;;;;6.83;3.13;;;29.90;47.70;;;;;;10581997;27;20262;-76
2023/05/25 09:05:34;;;;;;;7.70;3.63;;;29.30;45.20;;;;;;10604803;27;20216;-76
2023/05/25 09:10:35;;;;;;;9.43;3.43;;;28.40;46.20;;;;;;10581184;27;20234;-76
2023/05/25 09:15:36;;;;;;;9.47;3.80;;;29.00;46.70;;;;;;10566383;27;20216;-76
2023/05/25 09:20:37;;;;;;;9.27;3.33;;;30.00;43.30;;;;;;10604522;27;20821;-75
2023/05/25 09:25:39;;;;;;;9.30;3.57;;;29.90;44.20;;;;;;10601826;27;20217;-76
2023/05/25 09:30:40;;;;;;;8.60;3.57;;;30.50;41.20;;;;;;10600694;27;20226;-76
2023/05/25 09:35:42;;;;;;;5.53;2.80;;;29.90;42.40;;;;;;10601565;27;20481;-76
2023/05/25 09:40:44;;;;;;;6.03;2.77;;;31.20;42.00;;;;;;10597535;27;20222;-75
2023/05/25 09:45:46;;;;;;;6.07;3.10;;;33.30;39.60;;;;;;10582627;27;20756;-75
2023/05/25 09:50:46;;;;;;;7.53;3.20;;;32.40;37.40;;;;;;10582446;27;20230;-75
2023/05/25 09:55:48;;;;;;;4.70;2.87;;;31.60;41.40;;;;;;10583620;27;20607;-76
2023/05/25 10:00:54;;;;;;;5.20;2.73;;;33.30;39.50;;;;;;10577258;27;20742;-76
2023/05/25 10:05:55;;;;;;;9.43;3.00;;;32.80;39.30;;;;;;10584201;27;20672;-76
2023/05/25 10:10:56;;;;;;;4.33;2.47;;;34.00;35.30;;;;;;10595633;27;20336;-75
2023/05/25 10:15:58;;;;;;;10.30;3.03;;;32.30;36.80;;;;;;10609907;27;20216;-75
2023/05/25 10:21:03;;;;;;;4.60;2.87;;;32.10;38.60;;;;;;10574082;27;20230;-75
2023/05/25 10:26:05;;;;;;;7.30;3.10;;;33.80;37.00;;;;;;10610439;27;20244;-75
2023/05/25 10:31:08;;;;;;;4.77;2.87;;;32.50;37.10;;;;;;10582607;27;20221;-75
2023/05/25 10:36:09;;;;;;;6.33;2.70;;;32.30;38.80;;;;;;10576344;27;20286;-75
2023/05/25 10:41:10;;;;;;;5.00;3.00;;;32.80;39.60;;;;;;10581532;27;20307;-75
2023/05/25 10:46:13;;;;;;;6.63;3.07;;;33.80;37.10;;;;;;10575921;27;20296;-75
2023/05/25 10:51:14;;;;;;;5.77;3.10;;;34.40;36.90;;;;;;10602632;27;20267;-75
2023/05/25 10:56:15;;;;;;;7.63;3.53;;;32.90;37.30;;;;;;10581005;27;20932;-75
2023/05/25 11:01:15;;;;;;;4.60;2.57;;;34.30;36.60;;;;;;10594795;27;20712;-75
2023/05/25 11:06:20;;;;;;;5.80;3.30;;;34.40;36.40;;;;;;10600547;27;20271;-75
2023/05/25 11:11:21;;;;;;;7.67;3.20;;;35.30;35.10;;;;;;10577613;27;20217;-75
2023/05/25 11:16:36;;;;;;;5.27;2.93;;;32.80;37.40;;;;;;10578601;27;20232;-75
2023/05/25 11:21:41;;;;;;;8.37;3.17;;;31.10;39.20;;;;;;10581307;28;20229;-75
2023/05/25 11:26:56;;;;;;;4.90;3.03;;;32.20;39.10;;;;;;10592168;28;20210;-75
2023/05/25 11:31:58;;;;;;;5.30;3.70;;;31.80;39.10;;;;;;10600715;28;20309;-75
2023/05/25 11:37:02;;;;;;;7.37;3.63;;;32.20;37.90;;;;;;10582428;28;20352;-74
2023/05/25 11:42:05;;;;;;;7.63;3.87;;;29.10;43.30;;;;;;10577586;28;20209;-75
2023/05/25 11:47:12;;;;;;;7.17;3.27;;;27.00;47.00;;;;;;10600041;28;20210;-74
2023/05/25 11:52:14;;;;;;;5.73;2.97;;;25.20;49.40;;;;;;10603236;28;20224;-74
2023/05/25 11:57:15;;;;;;;5.30;3.27;;;24.50;50.80;;;;;;10575496;28;20226;-74
2023/05/25 12:02:17;;;;;;;4.37;2.90;;;24.20;52.10;;;;;;10579111;28;20221;-74
2023/05/25 12:07:17;;;;;;;6.50;3.13;;;23.60;48.60;;;;;;10576206;27;20221;-74
2023/05/25 12:12:18;;;;;;;6.50;3.10;;;23.10;51.60;;;;;;10585825;27;20582;-74
2023/05/25 12:17:20;;;;;;;4.50;3.20;;;22.80;51.70;;;;;;10601738;27;20292;-73
2023/05/25 12:22:21;;;;;;;5.83;3.10;;;23.20;51.10;;;;;;10586037;27;20225;-74
2023/05/25 12:27:21;;;;;;;5.50;3.10;;;23.20;52.90;;;;;;10603714;27;20213;-75
2023/05/25 12:32:22;;;;;;;5.77;3.37;;;23.10;53.80;;;;;;10601113;27;20218;-74
2023/05/25 12:37:23;;;;;;;7.13;3.40;;;23.00;50.30;;;;;;10585250;27;20385;-74
2023/05/25 12:42:29;;;;;;;5.47;3.30;;;22.70;55.50;;;;;;10583287;27;20217;-74
2023/05/25 12:47:31;;;;;;;6.47;3.37;;;22.70;56.50;;;;;;10588503;27;20607;-74
2023/05/25 12:52:39;;;;;;;9.03;3.47;;;22.80;57.30;;;;;;10588140;27;20222;-74
2023/05/25 12:57:40;;;;;;;5.63;3.50;;;22.80;56.40;;;;;;10584968;27;20623;-74
2023/05/25 13:02:44;;;;;;;6.27;3.50;;;22.70;55.30;;;;;;10599144;27;20271;-74
2023/05/25 13:07:45;;;;;;;7.67;3.67;;;22.60;58.10;;;;;;10584395;27;20269;-74
2023/05/25 13:12:48;;;;;;;8.33;3.87;;;22.60;56.20;;;;;;10579924;27;20267;-74
2023/05/25 13:17:50;;;;;;;6.23;3.27;;;22.70;58.00;;;;;;10606280;27;20620;-74
2023/05/25 13:22:52;;;;;;;7.50;3.80;;;22.70;58.50;;;;;;10584667;27;20231;-74
2023/05/25 13:27:53;;;;;;;7.27;3.60;;;22.80;58.10;;;;;;10585842;27;20224;-74
2023/05/25 13:32:54;;;;;;;5.70;3.43;;;23.00;58.00;;;;;;10578249;27;20237;-74
2023/05/25 13:37:54;;;;;;;6.37;3.47;;;23.00;58.40;;;;;;10583498;27;20224;-74
2023/05/25 13:42:55;;;;;;;8.07;4.00;;;23.10;57.60;;;;;;10576471;27;20221;-73
2023/05/25 13:47:56;;;;;;;6.73;3.37;;;23.10;57.40;;;;;;10583682;27;20848;-73
2023/05/25 13:52:56;;;;;;;7.63;3.70;;;22.80;58.30;;;;;;10585623;27;20217;-74
2023/05/25 13:58:00;;;;;;;7.23;3.70;;;22.80;58.20;;;;;;10571325;27;20222;-74
2023/05/25 14:03:01;;;;;;;7.57;3.60;;;22.60;57.70;;;;;;10596093;27;20226;-74
2023/05/25 14:08:03;;;;;;;7.33;3.37;;;22.50;59.60;;;;;;10603167;27;20322;-74
2023/05/25 14:13:04;;;;;;;6.03;3.60;;;22.60;59.00;;;;;;10578396;27;20608;-74
2023/05/25 14:18:04;;;;;;;8.10;3.87;;;22.60;59.30;;;;;;10592790;27;20213;-73
2023/05/25 14:23:05;;;;;;;8.50;3.70;;;22.50;59.60;;;;;;10594454;27;20696;-74
2023/05/25 14:28:06;;;;;;;6.40;4.27;;;22.70;59.30;;;;;;10583164;27;20244;-72
2023/05/25 14:33:06;;;;;;;7.97;4.00;;;22.50;59.70;;;;;;10573562;27;20772;-69
2023/05/25 14:38:07;;;;;;;6.93;4.03;;;22.50;60.00;;;;;;10584670;27;20237;-73
2023/05/25 14:43:08;;;;;;;6.67;4.27;;;22.50;59.40;;;;;;10601503;27;20303;-74
2023/05/25 14:48:09;;;;;;;6.90;3.80;;;22.60;60.60;;;;;;10596333;27;20299;-73
2023/05/25 14:53:10;;;;;;;5.77;4.00;;;22.70;60.40;;;;;;10585115;27;20266;-74
2023/05/25 14:58:10;;;;;;;7.13;3.90;;;22.60;60.40;;;;;;10601397;27;20237;-75
2023/05/25 15:03:11;;;;;;;9.20;4.40;;;22.60;61.00;;;;;;10581485;27;20331;-75
2023/05/25 15:08:12;;;;;;;9.20;4.40;;;22.60;61.30;;;;;;10581889;27;20667;-75
2023/05/25 15:13:13;;;;;;;8.37;4.53;;;22.50;62.00;;;;;;10582389;27;20225;-75
2023/05/25 15:18:13;;;;;;;9.03;4.67;;;22.50;61.20;;;;;;10585388;27;20562;-74
2023/05/25 15:23:14;;;;;;;7.03;4.40;;;22.40;61.60;;;;;;10582143;28;20244;-73
2023/05/25 15:28:15;;;;;;;9.10;4.57;;;22.40;62.30;;;;;;10607785;28;20308;-76
2023/05/25 15:33:15;;;;;;;7.63;4.17;;;22.40;62.90;;;;;;10587444;28;20221;-74
2023/05/25 15:38:16;;;;;;;7.23;4.67;;;22.40;62.60;;;;;;10586092;28;20225;-74
2023/05/25 15:43:16;;;;;;;6.83;4.37;;;22.50;62.60;;;;;;10603238;27;20247;-74
2023/05/25 15:48:17;;;;;;;8.37;4.80;;;22.20;63.20;;;;;;10589984;27;20296;-74
2023/05/25 15:53:18;;;;;;;10.30;4.57;;;22.10;65.00;;;;;;10608370;27;20663;-75
2023/05/25 15:58:18;;;;;;;6.40;4.60;;;22.10;66.30;;;;;;10598980;27;20268;-73
2023/05/25 16:03:19;;;;;;;7.87;4.63;;;22.00;64.80;;;;;;10602210;27;20225;-70
2023/05/25 16:08:20;;;;;;;9.53;5.13;;;22.10;64.50;;;;;;10602929;27;20228;-76
2023/05/25 16:13:21;;;;;;;7.93;4.53;;;22.00;64.60;;;;;;10589942;27;20227;-74
2023/05/25 16:18:22;;;;;;;8.33;4.73;;;22.10;65.30;;;;;;10604522;27;20223;-76
2023/05/25 16:23:23;;;;;;;8.30;5.43;;;22.00;64.40;;;;;;10591864;27;20221;-73
2023/05/25 16:28:23;;;;;;;12.60;5.87;;;21.70;65.90;;;;;;10583749;27;20270;-73
2023/05/25 16:33:24;;;;;;;8.57;4.77;;;21.70;66.50;;;;;;10602160;27;20243;-74
2023/05/25 16:38:25;;;;;;;9.33;5.13;;;21.60;67.20;;;;;;10598092;27;20936;-74
2023/05/25 16:43:25;;;;;;;9.13;5.03;;;21.60;67.50;;;;;;10587860;27;20303;-73
2023/05/25 16:48:28;;;;;;;8.07;5.20;;;21.50;68.40;;;;;;10604953;27;20260;-74
2023/05/25 16:53:29;;;;;;;7.27;4.60;;;21.40;68.00;;;;;;10602864;27;20217;-75
2023/05/25 16:58:30;;;;;;;7.43;5.00;;;21.40;68.40;;;;;;10584021;27;20684;-75
2023/05/25 17:03:30;;;;;;;13.13;5.20;;;21.40;68.70;;;;;;10598406;27;20225;-75
2023/05/25 17:08:31;;;;;;;7.00;5.20;;;21.30;69.20;;;;;;10581352;27;20221;-75
2023/05/25 17:13:32;;;;;;;8.30;5.40;;;21.20;68.40;;;;;;10596439;27;20780;-74
2023/05/25 17:18:34;;;;;;;8.53;5.50;;;21.20;68.90;;;;;;10600729;27;20624;-73
2023/05/25 17:23:35;;;;;;;7.23;4.70;;;21.10;68.70;;;;;;10609005;27;20632;-74
2023/05/25 17:28:36;;;;;;;8.33;4.97;;;21.00;68.90;;;;;;10592461;27;20221;-75
2023/05/25 17:33:37;;;;;;;7.43;5.00;;;20.90;68.90;;;;;;10604589;27;20241;-75
2023/05/25 17:38:39;;;;;;;8.03;5.00;;;20.80;68.30;;;;;;10592987;27;20825;-74
2023/05/25 17:43:40;;;;;;;11.63;5.27;;;20.60;69.20;;;;;;10604416;27;20218;-75
2023/05/25 17:48:41;;;;;;;8.53;4.83;;;20.50;68.90;;;;;;10591709;27;20296;-72
2023/05/25 17:53:42;;;;;;;6.40;4.83;;;20.40;68.40;;;;;;10585976;27;20309;-74
2023/05/25 17:58:46;;;;;;;6.73;4.57;;;20.40;68.30;;;;;;10589283;27;20243;-74
2023/05/25 18:03:49;;;;;;;8.80;4.97;;;20.30;68.70;;;;;;10586210;27;20250;-73
2023/05/25 18:08:50;;;;;;;9.40;5.00;;;20.10;69.00;;;;;;10605532;27;20205;-74
2023/05/25 18:13:52;;;;;;;8.47;4.93;;;20.00;69.00;;;;;;10579357;27;20218;-72
2023/05/25 18:18:52;;;;;;;10.57;4.70;;;19.80;68.90;;;;;;10583667;27;20210;-73
2023/05/25 18:23:53;;;;;;;7.13;4.50;;;19.80;68.90;;;;;;10587354;27;20228;-73
2023/05/25 18:28:54;;;;;;;7.27;4.13;;;19.60;69.10;;;;;;10577132;27;20247;-75
2023/05/25 18:33:54;;;;;;;10.97;4.63;;;19.50;69.40;;;;;;10608763;27;20219;-73
2023/05/25 18:38:55;;;;;;;9.23;4.63;;;19.40;70.00;;;;;;10597902;27;20224;-73
2023/05/25 18:43:56;;;;;;;9.90;4.60;;;19.30;70.90;;;;;;10573462;27;20226;-74
2023/05/25 18:48:56;;;;;;;8.37;4.30;;;19.10;72.30;;;;;;10606708;27;20262;-74
2023/05/25 18:53:57;;;;;;;13.73;4.57;;;19.10;73.40;;;;;;10599427;27;20308;-74
2023/05/25 18:58:58;;;;;;;7.93;4.63;;;18.90;74.30;;;;;;10613740;27;20227;-74
2023/05/25 19:03:59;;;;;;;11.63;5.33;;;18.80;75.70;;;;;;10576735;27;20235;-74
2023/05/25 19:08:59;;;;;;;8.37;4.80;;;18.60;76.80;;;;;;10574652;27;20806;-74
2023/05/25 19:14:00;;;;;;;7.30;4.17;;;18.40;77.80;;;;;;10574776;27;20235;-73
2023/05/25 19:19:01;;;;;;;7.43;4.20;;;18.30;78.80;;;;;;10597960;27;20282;-74
2023/05/25 19:24:02;;;;;;;9.33;4.80;;;18.20;79.80;;;;;;10602221;27;20675;-73
2023/05/25 19:29:02;;;;;;;11.03;4.70;;;18.10;80.80;;;;;;10601421;28;20238;-74
2023/05/25 19:34:03;;;;;;;11.40;4.93;;;18.00;81.80;;;;;;10592772;28;20221;-73
2023/05/25 19:39:07;;;;;;;6.80;4.47;;;17.80;82.60;;;;;;10574493;28;20330;-73
2023/05/25 19:44:09;;;;;;;7.27;4.57;;;17.70;83.30;;;;;;10581407;28;20750;-74
2023/05/25 19:49:09;;;;;;;8.03;4.70;;;17.60;83.90;;;;;;10585605;28;20626;-75
2023/05/25 19:54:10;;;;;;;9.17;4.93;;;17.50;84.80;;;;;;10579592;28;20230;-73
2023/05/25 19:59:10;;;;;;;13.50;4.93;;;17.40;85.40;;;;;;10611588;28;20224;-74
2023/05/25 20:04:11;;;;;;;12.60;4.70;;;17.30;86.10;;;;;;10595700;28;20323;-74
2023/05/25 20:09:13;;;;;;;9.63;4.50;;;17.20;86.80;;;;;;10585725;28;20723;-73
2023/05/25 20:14:13;;;;;;;11.33;4.43;;;17.10;87.40;;;;;;10585797;28;20224;-74
2023/05/25 20:19:14;;;;;;;8.47;4.10;;;17.10;89.00;;;;;;10600878;28;20796;-74
2023/05/25 20:24:15;;;;;;;13.57;4.60;;;17.00;88.60;;;;;;10587739;28;20228;-74
2023/05/25 20:29:15;;;;;;;8.87;4.40;;;16.90;89.20;;;;;;10588893;27;20231;-73
2023/05/25 20:34:16;;;;;;;9.07;4.70;;;16.90;89.80;;;;;;10591165;27;20316;-74
2023/05/25 20:39:16;;;;;;;8.13;4.40;;;16.80;90.20;;;;;;10608056;27;20217;-74
2023/05/25 20:44:17;;;;;;;7.90;4.37;;;16.60;90.40;;;;;;10602766;27;20251;-74
2023/05/25 20:49:18;;;;;;;9.70;4.70;;;16.60;90.70;;;;;;10601030;27;20213;-75
2023/05/25 20:54:18;;;;;;;8.00;4.50;;;16.50;91.00;;;;;;10585915;27;20240;-75
2023/05/25 20:59:20;;;;;;;9.10;5.10;;;16.40;91.30;;;;;;10595201;27;20209;-74
2023/05/25 21:04:21;;;;;;;9.47;5.07;;;16.30;91.40;;;;;;10604468;27;20629;-73
2023/05/25 21:09:24;;;;;;;8.40;4.80;;;16.20;91.60;;;;;;10599768;27;20300;-75
2023/05/25 21:14:24;;;;;;;8.10;4.70;;;16.10;91.90;;;;;;10581688;27;20706;-75
2023/05/25 21:19:25;;;;;;;7.57;4.83;;;16.00;92.00;;;;;;10578785;27;20224;-74
2023/05/25 21:24:26;;;;;;;9.10;4.73;;;15.90;92.40;;;;;;10608100;27;20251;-73
2023/05/25 21:29:26;;;;;;;7.57;4.50;;;15.80;92.60;;;;;;10599023;27;20216;-72
2023/05/25 21:34:27;;;;;;;9.43;5.17;;;15.80;92.80;;;;;;10597595;27;20572;-74
2023/05/25 21:39:28;;;;;;;7.17;4.73;;;15.70;93.20;;;;;;10599041;27;20220;-74
2023/05/25 21:44:28;;;;;;;13.23;5.47;;;15.70;93.50;;;;;;10591972;27;20220;-74
2023/05/25 21:49:29;;;;;;;7.67;4.67;;;15.50;93.70;;;;;;10600952;27;20229;-74
2023/05/25 21:54:29;;;;;;;8.13;5.10;;;15.40;94.00;;;;;;10598102;27;20236;-74
2023/05/25 21:59:30;;;;;;;8.97;4.90;;;15.30;94.40;;;;;;10600092;27;20625;-73
2023/05/25 22:04:31;;;;;;;9.93;5.57;;;15.30;94.90;;;;;;10585757;27;20699;-74
2023/05/25 22:09:31;;;;;;;10.60;5.87;;;15.20;95.20;;;;;;10591802;27;20228;-75
2023/05/25 22:14:32;;;;;;;9.43;5.27;;;15.10;95.60;;;;;;10567607;27;20353;-74
2023/05/25 22:19:33;;;;;;;9.63;6.00;;;15.00;96.10;;;;;;10596983;27;20209;-73
2023/05/25 22:24:33;;;;;;;8.20;5.80;;;14.90;96.50;;;;;;10585538;27;20224;-74
2023/05/25 22:29:34;;;;;;;12.67;5.93;;;14.80;96.90;;;;;;10576498;27;20225;-72
2023/05/25 22:34:35;;;;;;;10.33;5.70;;;14.70;97.40;;;;;;10598718;27;20254;-73
2023/05/25 22:39:35;;;;;;;11.53;5.83;;;14.60;97.90;;;;;;10587979;27;20217;-72
2023/05/25 22:44:37;;;;;;;11.17;6.03;;;14.70;98.90;;;;;;10589359;27;20217;-72
2023/05/25 22:49:40;;;;;;;11.63;6.30;;;14.50;99.00;;;;;;10605723;27;20700;-74
2023/05/25 22:54:41;;;;;;;11.60;5.97;;;14.40;99.70;;;;;;10583617;27;20933;-73
2023/05/25 22:59:41;;;;;;;10.57;6.40;;;14.30;99.90;;;;;;10587038;27;20297;-70
2023/05/25 23:04:42;;;;;;;10.67;6.70;;;14.20;99.90;;;;;;10583813;27;20628;-70
2023/05/25 23:09:44;;;;;;;9.90;6.13;;;14.10;99.90;;;;;;10597697;27;20217;-69
2023/05/25 23:14:44;;;;;;;10.00;5.87;;;14.10;99.90;;;;;;10596833;27;20225;-69
2023/05/25 23:19:45;;;;;;;11.50;6.17;;;14.00;99.90;;;;;;10592944;27;20735;-70
2023/05/25 23:24:46;;;;;;;12.13;5.97;;;14.00;99.90;;;;;;10595042;28;20229;-69
2023/05/25 23:29:46;;;;;;;13.67;6.40;;;13.90;99.90;;;;;;10590857;28;20215;-69
2023/05/25 23:34:47;;;;;;;9.43;6.50;;;13.80;99.90;;;;;;10572647;28;20218;-70
2023/05/25 23:39:47;;;;;;;11.40;6.57;;;13.70;99.90;;;;;;10597171;28;20225;-71
2023/05/25 23:44:48;;;;;;;14.23;7.17;;;13.70;99.90;;;;;;10578699;28;20370;-69
2023/05/25 23:49:48;;;;;;;12.47;6.20;;;13.60;99.90;;;;;;10576967;28;20945;-69
2023/05/25 23:54:49;;;;;;;10.10;6.77;;;13.50;99.90;;;;;;10601138;28;20723;-70
2023/05/25 23:59:50;;;;;;;11.90;6.60;;;13.40;99.90;;;;;;10604151;28;20575;-69
